sensor_id;sensor_type;location;lat;lon;timestamp;P1;durP1;ratioP1;P2;durP2;ratioP2
20655;SDS011;10487;53.320;8.672;2023-06-10T00:00:42;0.30;;;0.30;;
20655;SDS011;10487;53.320;8.672;2023-06-10T00:03:45;0.30;;;0.30;;
20655;SDS011;10487;53.320;8.672;2023-06-10T00:06:47;0.20;;;0.20;;
20655;SDS011;10487;53.320;8.672;2023-06-10T00:09:50;0.13;;;0.13;;
20655;SDS011;10487;53.320;8.672;2023-06-10T00:12:52;0.20;;;0.20;;
20655;SDS011;10487;53.320;8.672;2023-06-10T00:15:54;0.40;;;0.30;;
20655;SDS011;10487;53.320;8.672;2023-06-10T00:18:56;0.20;;;0.20;;
20655;SDS011;10487;53.320;8.672;2023-06-10T00:22:02;0.17;;;0.17;;
20655;SDS011;10487;53.320;8.672;2023-06-10T00:25:04;0.30;;;0.10;;
20655;SDS011;10487;53.320;8.672;2023-06-10T00:28:07;0.10;;;0.10;;
20655;SDS011;10487;53.320;8.672;2023-06-10T00:31:09;0.20;;;0.20;;
20655;SDS011;10487;53.320;8.672;2023-06-10T00:34:11;0.10;;;0.10;;
20655;SDS011;10487;53.320;8.672;2023-06-10T00:37:13;0.47;;;0.28;;
20655;SDS011;10487;53.320;8.672;2023-06-10T00:40:14;0.10;;;0.10;;
20655;SDS011;10487;53.320;8.672;2023-06-10T00:43:16;0.20;;;0.20;;
20655;SDS011;10487;53.320;8.672;2023-06-10T00:46:18;0.20;;;0.20;;
20655;SDS011;10487;53.320;8.672;2023-06-10T00:49:21;0.20;;;0.20;;
20655;SDS011;10487;53.320;8.672;2023-06-10T00:52:23;0.40;;;0.20;;
20655;SDS011;10487;53.320;8.672;2023-06-10T00:55:29;0.20;;;0.20;;
20655;SDS011;10487;53.320;8.672;2023-06-10T00:58:31;0.22;;;0.20;;
20655;SDS011;10487;53.320;8.672;2023-06-10T01:01:33;0.10;;;0.10;;
20655;SDS011;10487;53.320;8.672;2023-06-10T01:04:35;0.43;;;0.43;;
20655;SDS011;10487;53.320;8.672;2023-06-10T01:10:55;0.20;;;0.20;;
20655;SDS011;10487;53.320;8.672;2023-06-10T01:14:02;0.20;;;0.20;;
20655;SDS011;10487;53.320;8.672;2023-06-10T01:17:06;0.20;;;0.20;;
20655;SDS011;10487;53.320;8.672;2023-06-10T01:20:11;0.13;;;0.10;;
20655;SDS011;10487;53.320;8.672;2023-06-10T01:23:13;0.20;;;0.20;;
20655;SDS011;10487;53.320;8.672;2023-06-10T01:26:14;0.30;;;0.20;;
20655;SDS011;10487;53.320;8.672;2023-06-10T01:29:18;0.30;;;0.20;;
20655;SDS011;10487;53.320;8.672;2023-06-10T01:32:23;0.32;;;0.20;;
20655;SDS011;10487;53.320;8.672;2023-06-10T01:35:30;0.22;;;0.20;;
20655;SDS011;10487;53.320;8.672;2023-06-10T01:38:33;0.10;;;0.10;;
20655;SDS011;10487;53.320;8.672;2023-06-10T01:41:40;0.20;;;0.20;;
20655;SDS011;10487;53.320;8.672;2023-06-10T01:44:42;0.20;;;0.20;;
20655;SDS011;10487;53.320;8.672;2023-06-10T01:47:44;0.40;;;0.20;;
20655;SDS011;10487;53.320;8.672;2023-06-10T01:50:46;0.25;;;0.20;;
20655;SDS011;10487;53.320;8.672;2023-06-10T01:53:47;0.75;;;0.15;;
20655;SDS011;10487;53.320;8.672;2023-06-10T01:56:49;0.17;;;0.17;;
20655;SDS011;10487;53.320;8.672;2023-06-10T01:59:51;0.20;;;0.20;;
20655;SDS011;10487;53.320;8.672;2023-06-10T02:02:52;0.20;;;0.20;;
20655;SDS011;10487;53.320;8.672;2023-06-10T02:05:54;0.20;;;0.10;;
20655;SDS011;10487;53.320;8.672;2023-06-10T02:08:56;0.10;;;0.10;;
20655;SDS011;10487;53.320;8.672;2023-06-10T02:11:57;0.20;;;0.20;;
20655;SDS011;10487;53.320;8.672;2023-06-10T02:14:59;0.20;;;0.20;;
20655;SDS011;10487;53.320;8.672;2023-06-10T02:18:01;0.68;;;0.20;;
20655;SDS011;10487;53.320;8.672;2023-06-10T02:21:03;0.25;;;0.10;;
20655;SDS011;10487;53.320;8.672;2023-06-10T02:24:05;0.30;;;0.28;;
20655;SDS011;10487;53.320;8.672;2023-06-10T02:27:07;0.20;;;0.20;;
20655;SDS011;10487;53.320;8.672;2023-06-10T02:30:09;0.10;;;0.10;;
20655;SDS011;10487;53.320;8.672;2023-06-10T02:33:11;0.20;;;0.20;;
20655;SDS011;10487;53.320;8.672;2023-06-10T02:36:13;0.30;;;0.20;;
20655;SDS011;10487;53.320;8.672;2023-06-10T02:39:16;0.30;;;0.20;;
20655;SDS011;10487;53.320;8.672;2023-06-10T02:42:18;0.20;;;0.20;;
20655;SDS011;10487;53.320;8.672;2023-06-10T02:45:20;1.17;;;0.40;;
20655;SDS011;10487;53.320;8.672;2023-06-10T02:48:23;0.20;;;0.20;;
20655;SDS011;10487;53.320;8.672;2023-06-10T02:51:25;0.17;;;0.13;;
20655;SDS011;10487;53.320;8.672;2023-06-10T02:54:27;0.30;;;0.20;;
20655;SDS011;10487;53.320;8.672;2023-06-10T02:57:28;0.30;;;0.30;;
20655;SDS011;10487;53.320;8.672;2023-06-10T03:00:30;0.20;;;0.20;;
20655;SDS011;10487;53.320;8.672;2023-06-10T03:03:32;0.30;;;0.30;;
20655;SDS011;10487;53.320;8.672;2023-06-10T03:06:35;0.20;;;0.20;;
20655;SDS011;10487;53.320;8.672;2023-06-10T03:09:37;0.20;;;0.20;;
20655;SDS011;10487;53.320;8.672;2023-06-10T03:12:38;0.20;;;0.20;;
20655;SDS011;10487;53.320;8.672;2023-06-10T03:15:40;0.82;;;0.40;;
20655;SDS011;10487;53.320;8.672;2023-06-10T03:18:42;0.20;;;0.20;;
20655;SDS011;10487;53.320;8.672;2023-06-10T03:21:44;0.20;;;0.20;;
20655;SDS011;10487;53.320;8.672;2023-06-10T03:24:46;0.82;;;0.30;;
20655;SDS011;10487;53.320;8.672;2023-06-10T03:27:51;0.22;;;0.22;;
20655;SDS011;10487;53.320;8.672;2023-06-10T03:30:53;0.20;;;0.20;;
20655;SDS011;10487;53.320;8.672;2023-06-10T03:33:54;0.20;;;0.13;;
20655;SDS011;10487;53.320;8.672;2023-06-10T03:36:56;0.30;;;0.30;;
20655;SDS011;10487;53.320;8.672;2023-06-10T03:39:58;0.40;;;0.30;;
20655;SDS011;10487;53.320;8.672;2023-06-10T03:43:00;1.15;;;0.20;;
20655;SDS011;10487;53.320;8.672;2023-06-10T03:46:02;0.20;;;0.20;;
20655;SDS011;10487;53.320;8.672;2023-06-10T03:49:03;0.20;;;0.20;;
20655;SDS011;10487;53.320;8.672;2023-06-10T03:52:06;0.22;;;0.22;;
20655;SDS011;10487;53.320;8.672;2023-06-10T03:55:08;0.40;;;0.38;;
20655;SDS011;10487;53.320;8.672;2023-06-10T03:58:10;0.30;;;0.30;;
20655;SDS011;10487;53.320;8.672;2023-06-10T04:01:14;0.47;;;0.25;;
20655;SDS011;10487;53.320;8.672;2023-06-10T04:04:16;0.20;;;0.20;;
20655;SDS011;10487;53.320;8.672;2023-06-10T04:07:18;0.20;;;0.20;;
20655;SDS011;10487;53.320;8.672;2023-06-10T04:10:21;0.30;;;0.22;;
20655;SDS011;10487;53.320;8.672;2023-06-10T04:13:23;0.20;;;0.20;;
20655;SDS011;10487;53.320;8.672;2023-06-10T04:16:25;0.20;;;0.20;;
20655;SDS011;10487;53.320;8.672;2023-06-10T04:19:26;0.32;;;0.32;;
20655;SDS011;10487;53.320;8.672;2023-06-10T04:22:29;0.43;;;0.20;;
20655;SDS011;10487;53.320;8.672;2023-06-10T04:25:31;0.43;;;0.30;;
20655;SDS011;10487;53.320;8.672;2023-06-10T04:28:33;0.65;;;0.30;;
20655;SDS011;10487;53.320;8.672;2023-06-10T04:31:34;0.20;;;0.20;;
20655;SDS011;10487;53.320;8.672;2023-06-10T04:34:36;0.28;;;0.28;;
20655;SDS011;10487;53.320;8.672;2023-06-10T04:37:40;0.30;;;0.30;;
20655;SDS011;10487;53.320;8.672;2023-06-10T04:40:42;0.45;;;0.30;;
20655;SDS011;10487;53.320;8.672;2023-06-10T04:43:44;0.50;;;0.30;;
20655;SDS011;10487;53.320;8.672;2023-06-10T04:46:45;0.20;;;0.20;;
20655;SDS011;10487;53.320;8.672;2023-06-10T04:49:47;0.22;;;0.20;;
20655;SDS011;10487;53.320;8.672;2023-06-10T04:52:49;0.63;;;0.30;;
20655;SDS011;10487;53.320;8.672;2023-06-10T04:55:50;0.25;;;0.20;;
20655;SDS011;10487;53.320;8.672;2023-06-10T04:58:52;0.68;;;0.40;;
20655;SDS011;10487;53.320;8.672;2023-06-10T05:01:54;0.28;;;0.20;;
20655;SDS011;10487;53.320;8.672;2023-06-10T05:04:56;0.40;;;0.22;;
20655;SDS011;10487;53.320;8.672;2023-06-10T05:07:59;0.30;;;0.20;;
20655;SDS011;10487;53.320;8.672;2023-06-10T05:11:00;0.52;;;0.30;;
20655;SDS011;10487;53.320;8.672;2023-06-10T05:14:02;1.30;;;0.30;;
20655;SDS011;10487;53.320;8.672;2023-06-10T05:17:04;0.55;;;0.40;;
20655;SDS011;10487;53.320;8.672;2023-06-10T05:20:07;0.43;;;0.30;;
20655;SDS011;10487;53.320;8.672;2023-06-10T05:23:09;0.98;;;0.40;;
20655;SDS011;10487;53.320;8.672;2023-06-10T05:26:11;1.63;;;0.50;;
20655;SDS011;10487;53.320;8.672;2023-06-10T05:29:13;0.80;;;0.55;;
20655;SDS011;10487;53.320;8.672;2023-06-10T05:32:14;0.40;;;0.25;;
20655;SDS011;10487;53.320;8.672;2023-06-10T05:35:16;0.50;;;0.40;;
20655;SDS011;10487;53.320;8.672;2023-06-10T05:38:18;0.40;;;0.40;;
20655;SDS011;10487;53.320;8.672;2023-06-10T05:41:20;0.52;;;0.40;;
20655;SDS011;10487;53.320;8.672;2023-06-10T05:44:23;1.58;;;0.52;;
20655;SDS011;10487;53.320;8.672;2023-06-10T05:47:24;0.40;;;0.40;;
20655;SDS011;10487;53.320;8.672;2023-06-10T05:50:26;1.33;;;0.60;;
20655;SDS011;10487;53.320;8.672;2023-06-10T05:53:28;0.82;;;0.40;;
20655;SDS011;10487;53.320;8.672;2023-06-10T05:56:30;1.98;;;0.40;;
20655;SDS011;10487;53.320;8.672;2023-06-10T05:59:31;0.98;;;0.50;;
20655;SDS011;10487;53.320;8.672;2023-06-10T06:02:33;1.13;;;0.40;;
20655;SDS011;10487;53.320;8.672;2023-06-10T06:05:38;0.93;;;0.40;;
20655;SDS011;10487;53.320;8.672;2023-06-10T06:08:40;0.90;;;0.43;;
20655;SDS011;10487;53.320;8.672;2023-06-10T06:11:41;1.65;;;0.47;;
20655;SDS011;10487;53.320;8.672;2023-06-10T06:14:43;0.40;;;0.40;;
20655;SDS011;10487;53.320;8.672;2023-06-10T06:17:46;0.40;;;0.40;;
20655;SDS011;10487;53.320;8.672;2023-06-10T06:20:49;0.57;;;0.40;;
20655;SDS011;10487;53.320;8.672;2023-06-10T06:23:51;1.13;;;0.40;;
20655;SDS011;10487;53.320;8.672;2023-06-10T06:26:53;0.50;;;0.30;;
20655;SDS011;10487;53.320;8.672;2023-06-10T06:29:54;0.77;;;0.40;;
20655;SDS011;10487;53.320;8.672;2023-06-10T06:32:56;0.43;;;0.40;;
20655;SDS011;10487;53.320;8.672;2023-06-10T06:35:58;0.60;;;0.40;;
20655;SDS011;10487;53.320;8.672;2023-06-10T06:39:02;0.82;;;0.60;;
20655;SDS011;10487;53.320;8.672;2023-06-10T06:42:04;1.25;;;0.57;;
20655;SDS011;10487;53.320;8.672;2023-06-10T06:45:07;0.63;;;0.45;;
20655;SDS011;10487;53.320;8.672;2023-06-10T06:48:09;0.40;;;0.40;;
20655;SDS011;10487;53.320;8.672;2023-06-10T06:51:11;0.22;;;0.22;;
20655;SDS011;10487;53.320;8.672;2023-06-10T06:54:12;0.45;;;0.40;;
20655;SDS011;10487;53.320;8.672;2023-06-10T06:57:14;0.32;;;0.30;;
20655;SDS011;10487;53.320;8.672;2023-06-10T07:00:16;0.82;;;0.30;;
20655;SDS011;10487;53.320;8.672;2023-06-10T07:03:18;0.40;;;0.40;;
20655;SDS011;10487;53.320;8.672;2023-06-10T07:06:19;0.98;;;0.45;;
20655;SDS011;10487;53.320;8.672;2023-06-10T07:09:21;0.57;;;0.30;;
20655;SDS011;10487;53.320;8.672;2023-06-10T07:12:22;0.30;;;0.30;;
20655;SDS011;10487;53.320;8.672;2023-06-10T07:15:25;0.20;;;0.20;;
20655;SDS011;10487;53.320;8.672;2023-06-10T07:18:26;0.63;;;0.20;;
20655;SDS011;10487;53.320;8.672;2023-06-10T07:21:29;0.52;;;0.30;;
20655;SDS011;10487;53.320;8.672;2023-06-10T07:24:31;0.25;;;0.25;;
20655;SDS011;10487;53.320;8.672;2023-06-10T07:27:33;0.20;;;0.20;;
20655;SDS011;10487;53.320;8.672;2023-06-10T07:30:34;0.22;;;0.20;;
20655;SDS011;10487;53.320;8.672;2023-06-10T07:33:36;1.13;;;0.30;;
20655;SDS011;10487;53.320;8.672;2023-06-10T07:36:39;0.60;;;0.40;;
20655;SDS011;10487;53.320;8.672;2023-06-10T07:39:41;0.93;;;0.30;;
20655;SDS011;10487;53.320;8.672;2023-06-10T07:42:43;0.20;;;0.20;;
20655;SDS011;10487;53.320;8.672;2023-06-10T07:45:45;0.30;;;0.30;;
20655;SDS011;10487;53.320;8.672;2023-06-10T07:48:47;0.20;;;0.20;;
20655;SDS011;10487;53.320;8.672;2023-06-10T07:51:49;0.40;;;0.25;;
20655;SDS011;10487;53.320;8.672;2023-06-10T07:54:51;0.47;;;0.20;;
20655;SDS011;10487;53.320;8.672;2023-06-10T07:57:53;0.20;;;0.20;;
20655;SDS011;10487;53.320;8.672;2023-06-10T08:00:55;0.90;;;0.40;;
20655;SDS011;10487;53.320;8.672;2023-06-10T08:03:57;0.30;;;0.30;;
20655;SDS011;10487;53.320;8.672;2023-06-10T08:06:59;0.47;;;0.20;;
20655;SDS011;10487;53.320;8.672;2023-06-10T08:10:01;0.30;;;0.30;;
20655;SDS011;10487;53.320;8.672;2023-06-10T08:13:04;0.63;;;0.40;;
20655;SDS011;10487;53.320;8.672;2023-06-10T08:16:06;0.65;;;0.40;;
20655;SDS011;10487;53.320;8.672;2023-06-10T08:19:07;0.20;;;0.20;;
20655;SDS011;10487;53.320;8.672;2023-06-10T08:22:10;0.75;;;0.30;;
20655;SDS011;10487;53.320;8.672;2023-06-10T08:25:12;0.38;;;0.20;;
20655;SDS011;10487;53.320;8.672;2023-06-10T08:28:13;0.38;;;0.30;;
20655;SDS011;10487;53.320;8.672;2023-06-10T08:31:15;0.20;;;0.20;;
20655;SDS011;10487;53.320;8.672;2023-06-10T08:34:16;0.30;;;0.30;;
20655;SDS011;10487;53.320;8.672;2023-06-10T08:37:18;0.20;;;0.20;;
20655;SDS011;10487;53.320;8.672;2023-06-10T08:40:20;0.65;;;0.20;;
20655;SDS011;10487;53.320;8.672;2023-06-10T08:43:39;0.20;;;0.20;;
20655;SDS011;10487;53.320;8.672;2023-06-10T08:46:45;0.10;;;0.10;;
20655;SDS011;10487;53.320;8.672;2023-06-10T08:49:47;0.20;;;0.20;;
20655;SDS011;10487;53.320;8.672;2023-06-10T08:52:50;0.60;;;0.25;;
20655;SDS011;10487;53.320;8.672;2023-06-10T08:55:58;0.28;;;0.28;;
20655;SDS011;10487;53.320;8.672;2023-06-10T08:59:02;0.35;;;0.30;;
20655;SDS011;10487;53.320;8.672;2023-06-10T09:02:04;0.10;;;0.10;;
20655;SDS011;10487;53.320;8.672;2023-06-10T09:05:07;0.20;;;0.20;;
20655;SDS011;10487;53.320;8.672;2023-06-10T09:08:10;0.10;;;0.10;;
20655;SDS011;10487;53.320;8.672;2023-06-10T09:11:12;0.20;;;0.20;;
20655;SDS011;10487;53.320;8.672;2023-06-10T09:14:14;0.22;;;0.20;;
20655;SDS011;10487;53.320;8.672;2023-06-10T09:17:17;0.20;;;0.20;;
20655;SDS011;10487;53.320;8.672;2023-06-10T09:20:19;0.70;;;0.30;;
20655;SDS011;10487;53.320;8.672;2023-06-10T09:23:21;0.20;;;0.20;;
20655;SDS011;10487;53.320;8.672;2023-06-10T09:26:24;0.20;;;0.10;;
20655;SDS011;10487;53.320;8.672;2023-06-10T09:29:29;0.10;;;0.10;;
20655;SDS011;10487;53.320;8.672;2023-06-10T09:32:31;0.10;;;0.10;;
20655;SDS011;10487;53.320;8.672;2023-06-10T09:35:49;0.15;;;0.13;;
20655;SDS011;10487;53.320;8.672;2023-06-10T09:38:51;0.20;;;0.13;;
20655;SDS011;10487;53.320;8.672;2023-06-10T09:41:52;0.22;;;0.20;;
20655;SDS011;10487;53.320;8.672;2023-06-10T09:44:56;0.20;;;0.20;;
20655;SDS011;10487;53.320;8.672;2023-06-10T09:47:57;0.82;;;0.20;;
20655;SDS011;10487;53.320;8.672;2023-06-10T09:51:00;0.20;;;0.20;;
20655;SDS011;10487;53.320;8.672;2023-06-10T09:54:02;0.20;;;0.20;;
20655;SDS011;10487;53.320;8.672;2023-06-10T09:57:07;0.20;;;0.20;;
20655;SDS011;10487;53.320;8.672;2023-06-10T10:00:10;0.65;;;0.13;;
20655;SDS011;10487;53.320;8.672;2023-06-10T10:03:16;0.30;;;0.20;;
20655;SDS011;10487;53.320;8.672;2023-06-10T10:06:24;0.20;;;0.20;;
20655;SDS011;10487;53.320;8.672;2023-06-10T10:09:26;0.20;;;0.20;;
20655;SDS011;10487;53.320;8.672;2023-06-10T10:12:29;0.20;;;0.20;;
20655;SDS011;10487;53.320;8.672;2023-06-10T10:15:31;0.10;;;0.10;;
20655;SDS011;10487;53.320;8.672;2023-06-10T10:18:35;0.30;;;0.20;;
20655;SDS011;10487;53.320;8.672;2023-06-10T10:21:43;0.20;;;0.20;;
20655;SDS011;10487;53.320;8.672;2023-06-10T10:24:53;0.20;;;0.20;;
20655;SDS011;10487;53.320;8.672;2023-06-10T10:27:59;0.20;;;0.20;;
20655;SDS011;10487;53.320;8.672;2023-06-10T10:31:08;0.20;;;0.20;;
20655;SDS011;10487;53.320;8.672;2023-06-10T10:34:12;0.20;;;0.20;;
20655;SDS011;10487;53.320;8.672;2023-06-10T10:37:17;0.35;;;0.20;;
20655;SDS011;10487;53.320;8.672;2023-06-10T10:40:19;0.20;;;0.20;;
20655;SDS011;10487;53.320;8.672;2023-06-10T10:43:22;0.22;;;0.20;;
20655;SDS011;10487;53.320;8.672;2023-06-10T10:46:24;0.35;;;0.20;;
20655;SDS011;10487;53.320;8.672;2023-06-10T10:49:26;0.55;;;0.30;;
20655;SDS011;10487;53.320;8.672;2023-06-10T10:52:46;0.47;;;0.30;;
20655;SDS011;10487;53.320;8.672;2023-06-10T10:56:07;0.20;;;0.20;;
20655;SDS011;10487;53.320;8.672;2023-06-10T10:59:15;0.20;;;0.20;;
20655;SDS011;10487;53.320;8.672;2023-06-10T11:02:37;0.25;;;0.20;;
20655;SDS011;10487;53.320;8.672;2023-06-10T11:05:45;0.40;;;0.30;;
20655;SDS011;10487;53.320;8.672;2023-06-10T11:08:51;0.40;;;0.20;;
20655;SDS011;10487;53.320;8.672;2023-06-10T11:11:53;0.35;;;0.30;;
20655;SDS011;10487;53.320;8.672;2023-06-10T11:14:58;0.47;;;0.40;;
20655;SDS011;10487;53.320;8.672;2023-06-10T11:18:10;0.30;;;0.30;;
20655;SDS011;10487;53.320;8.672;2023-06-10T11:21:16;0.22;;;0.22;;
20655;SDS011;10487;53.320;8.672;2023-06-10T11:24:18;0.20;;;0.20;;
20655;SDS011;10487;53.320;8.672;2023-06-10T11:30:29;0.38;;;0.30;;
20655;SDS011;10487;53.320;8.672;2023-06-10T11:33:38;1.13;;;0.57;;
20655;SDS011;10487;53.320;8.672;2023-06-10T11:36:40;0.22;;;0.22;;
20655;SDS011;10487;53.320;8.672;2023-06-10T11:39:46;0.20;;;0.20;;
20655;SDS011;10487;53.320;8.672;2023-06-10T11:42:48;0.20;;;0.20;;
20655;SDS011;10487;53.320;8.672;2023-06-10T11:45:53;0.80;;;0.30;;
20655;SDS011;10487;53.320;8.672;2023-06-10T11:48:57;0.38;;;0.20;;
20655;SDS011;10487;53.320;8.672;2023-06-10T11:52:03;0.28;;;0.28;;
20655;SDS011;10487;53.320;8.672;2023-06-10T11:55:06;0.35;;;0.35;;
20655;SDS011;10487;53.320;8.672;2023-06-10T11:58:12;0.30;;;0.25;;
20655;SDS011;10487;53.320;8.672;2023-06-10T12:01:21;0.32;;;0.30;;
20655;SDS011;10487;53.320;8.672;2023-06-10T12:04:29;0.20;;;0.20;;
20655;SDS011;10487;53.320;8.672;2023-06-10T12:07:31;1.33;;;0.22;;
20655;SDS011;10487;53.320;8.672;2023-06-10T12:10:33;0.50;;;0.30;;
20655;SDS011;10487;53.320;8.672;2023-06-10T12:13:45;0.22;;;0.22;;
20655;SDS011;10487;53.320;8.672;2023-06-10T12:16:49;0.45;;;0.20;;
20655;SDS011;10487;53.320;8.672;2023-06-10T12:19:51;0.30;;;0.30;;
20655;SDS011;10487;53.320;8.672;2023-06-10T12:22:53;0.20;;;0.20;;
20655;SDS011;10487;53.320;8.672;2023-06-10T12:25:55;0.20;;;0.20;;
20655;SDS011;10487;53.320;8.672;2023-06-10T12:28:57;0.25;;;0.25;;
20655;SDS011;10487;53.320;8.672;2023-06-10T12:35:05;0.20;;;0.20;;
20655;SDS011;10487;53.320;8.672;2023-06-10T12:38:08;0.10;;;0.10;;
20655;SDS011;10487;53.320;8.672;2023-06-10T12:41:12;0.20;;;0.20;;
20655;SDS011;10487;53.320;8.672;2023-06-10T12:44:15;0.25;;;0.20;;
20655;SDS011;10487;53.320;8.672;2023-06-10T12:47:17;0.20;;;0.20;;
20655;SDS011;10487;53.320;8.672;2023-06-10T12:50:18;0.32;;;0.20;;
20655;SDS011;10487;53.320;8.672;2023-06-10T12:53:20;0.20;;;0.20;;
20655;SDS011;10487;53.320;8.672;2023-06-10T12:56:22;0.52;;;0.30;;
20655;SDS011;10487;53.320;8.672;2023-06-10T12:59:25;0.20;;;0.20;;
20655;SDS011;10487;53.320;8.672;2023-06-10T13:02:27;0.40;;;0.40;;
20655;SDS011;10487;53.320;8.672;2023-06-10T13:05:28;0.30;;;0.30;;
20655;SDS011;10487;53.320;8.672;2023-06-10T13:08:30;0.20;;;0.20;;
20655;SDS011;10487;53.320;8.672;2023-06-10T13:11:32;0.45;;;0.30;;
20655;SDS011;10487;53.320;8.672;2023-06-10T13:14:34;0.30;;;0.20;;
20655;SDS011;10487;53.320;8.672;2023-06-10T13:17:35;0.30;;;0.20;;
20655;SDS011;10487;53.320;8.672;2023-06-10T13:20:38;0.20;;;0.20;;
20655;SDS011;10487;53.320;8.672;2023-06-10T13:23:40;0.30;;;0.30;;
20655;SDS011;10487;53.320;8.672;2023-06-10T13:26:41;0.55;;;0.22;;
20655;SDS011;10487;53.320;8.672;2023-06-10T13:29:43;0.35;;;0.10;;
20655;SDS011;10487;53.320;8.672;2023-06-10T13:32:45;0.20;;;0.20;;
20655;SDS011;10487;53.320;8.672;2023-06-10T13:35:46;0.20;;;0.20;;
20655;SDS011;10487;53.320;8.672;2023-06-10T13:38:48;0.20;;;0.20;;
20655;SDS011;10487;53.320;8.672;2023-06-10T13:41:50;0.52;;;0.20;;
20655;SDS011;10487;53.320;8.672;2023-06-10T13:44:53;0.52;;;0.35;;
20655;SDS011;10487;53.320;8.672;2023-06-10T13:47:55;0.50;;;0.40;;
20655;SDS011;10487;53.320;8.672;2023-06-10T13:50:56;0.30;;;0.30;;
20655;SDS011;10487;53.320;8.672;2023-06-10T13:53:58;0.30;;;0.30;;
20655;SDS011;10487;53.320;8.672;2023-06-10T13:57:00;0.25;;;0.25;;
20655;SDS011;10487;53.320;8.672;2023-06-10T14:00:02;0.32;;;0.28;;
20655;SDS011;10487;53.320;8.672;2023-06-10T14:03:04;0.20;;;0.20;;
20655;SDS011;10487;53.320;8.672;2023-06-10T14:06:06;0.20;;;0.20;;
20655;SDS011;10487;53.320;8.672;2023-06-10T14:09:08;0.20;;;0.20;;
20655;SDS011;10487;53.320;8.672;2023-06-10T14:12:10;0.20;;;0.20;;
20655;SDS011;10487;53.320;8.672;2023-06-10T14:15:12;0.20;;;0.20;;
20655;SDS011;10487;53.320;8.672;2023-06-10T14:18:15;0.17;;;0.17;;
20655;SDS011;10487;53.320;8.672;2023-06-10T14:21:17;0.30;;;0.30;;
20655;SDS011;10487;53.320;8.672;2023-06-10T14:24:19;0.22;;;0.22;;
20655;SDS011;10487;53.320;8.672;2023-06-10T14:27:21;0.40;;;0.30;;
20655;SDS011;10487;53.320;8.672;2023-06-10T14:30:22;0.30;;;0.20;;
20655;SDS011;10487;53.320;8.672;2023-06-10T14:33:24;0.20;;;0.20;;
20655;SDS011;10487;53.320;8.672;2023-06-10T14:36:26;0.35;;;0.30;;
20655;SDS011;10487;53.320;8.672;2023-06-10T14:39:28;0.30;;;0.30;;
20655;SDS011;10487;53.320;8.672;2023-06-10T14:42:29;0.20;;;0.20;;
20655;SDS011;10487;53.320;8.672;2023-06-10T14:45:31;0.20;;;0.20;;
20655;SDS011;10487;53.320;8.672;2023-06-10T14:48:36;0.30;;;0.30;;
20655;SDS011;10487;53.320;8.672;2023-06-10T14:51:38;0.30;;;0.30;;
20655;SDS011;10487;53.320;8.672;2023-06-10T14:54:39;0.85;;;0.30;;
20655;SDS011;10487;53.320;8.672;2023-06-10T14:57:41;0.30;;;0.30;;
20655;SDS011;10487;53.320;8.672;2023-06-10T15:00:43;0.28;;;0.20;;
20655;SDS011;10487;53.320;8.672;2023-06-10T15:03:44;0.30;;;0.30;;
20655;SDS011;10487;53.320;8.672;2023-06-10T15:06:46;0.57;;;0.47;;
20655;SDS011;10487;53.320;8.672;2023-06-10T15:09:49;0.32;;;0.30;;
20655;SDS011;10487;53.320;8.672;2023-06-10T15:12:51;0.50;;;0.30;;
20655;SDS011;10487;53.320;8.672;2023-06-10T15:15:57;0.30;;;0.30;;
20655;SDS011;10487;53.320;8.672;2023-06-10T15:19:03;0.30;;;0.30;;
20655;SDS011;10487;53.320;8.672;2023-06-10T15:22:07;0.20;;;0.20;;
20655;SDS011;10487;53.320;8.672;2023-06-10T15:25:09;0.30;;;0.30;;
20655;SDS011;10487;53.320;8.672;2023-06-10T15:28:14;0.30;;;0.30;;
20655;SDS011;10487;53.320;8.672;2023-06-10T15:31:15;0.30;;;0.30;;
20655;SDS011;10487;53.320;8.672;2023-06-10T15:34:17;1.35;;;0.45;;
20655;SDS011;10487;53.320;8.672;2023-06-10T15:37:19;0.40;;;0.40;;
20655;SDS011;10487;53.320;8.672;2023-06-10T15:40:22;0.50;;;0.47;;
20655;SDS011;10487;53.320;8.672;2023-06-10T15:43:23;0.50;;;0.50;;
20655;SDS011;10487;53.320;8.672;2023-06-10T15:46:27;0.40;;;0.40;;
20655;SDS011;10487;53.320;8.672;2023-06-10T15:49:30;0.30;;;0.30;;
20655;SDS011;10487;53.320;8.672;2023-06-10T15:52:31;0.40;;;0.40;;
20655;SDS011;10487;53.320;8.672;2023-06-10T15:55:33;0.50;;;0.50;;
20655;SDS011;10487;53.320;8.672;2023-06-10T15:58:35;0.40;;;0.40;;
20655;SDS011;10487;53.320;8.672;2023-06-10T16:01:36;0.52;;;0.50;;
20655;SDS011;10487;53.320;8.672;2023-06-10T16:04:39;0.47;;;0.47;;
20655;SDS011;10487;53.320;8.672;2023-06-10T16:07:40;0.30;;;0.30;;
20655;SDS011;10487;53.320;8.672;2023-06-10T16:10:42;0.50;;;0.40;;
20655;SDS011;10487;53.320;8.672;2023-06-10T16:13:44;1.48;;;0.60;;
20655;SDS011;10487;53.320;8.672;2023-06-10T16:16:45;0.50;;;0.50;;
20655;SDS011;10487;53.320;8.672;2023-06-10T16:19:47;0.65;;;0.63;;
20655;SDS011;10487;53.320;8.672;2023-06-10T16:22:49;0.50;;;0.50;;
20655;SDS011;10487;53.320;8.672;2023-06-10T16:25:50;0.40;;;0.40;;
20655;SDS011;10487;53.320;8.672;2023-06-10T16:28:52;0.65;;;0.65;;
20655;SDS011;10487;53.320;8.672;2023-06-10T16:31:54;0.30;;;0.30;;
20655;SDS011;10487;53.320;8.672;2023-06-10T16:34:55;0.40;;;0.40;;
20655;SDS011;10487;53.320;8.672;2023-06-10T16:37:57;0.30;;;0.30;;
20655;SDS011;10487;53.320;8.672;2023-06-10T16:41:03;1.25;;;0.50;;
20655;SDS011;10487;53.320;8.672;2023-06-10T16:44:05;0.50;;;0.50;;
20655;SDS011;10487;53.320;8.672;2023-06-10T16:47:06;0.57;;;0.40;;
20655;SDS011;10487;53.320;8.672;2023-06-10T16:50:08;0.90;;;0.60;;
20655;SDS011;10487;53.320;8.672;2023-06-10T16:53:10;0.60;;;0.52;;
20655;SDS011;10487;53.320;8.672;2023-06-10T16:56:12;0.40;;;0.40;;
20655;SDS011;10487;53.320;8.672;2023-06-10T16:59:13;0.40;;;0.40;;
20655;SDS011;10487;53.320;8.672;2023-06-10T17:02:15;0.60;;;0.60;;
20655;SDS011;10487;53.320;8.672;2023-06-10T17:05:17;0.60;;;0.60;;
20655;SDS011;10487;53.320;8.672;2023-06-10T17:08:18;0.50;;;0.50;;
20655;SDS011;10487;53.320;8.672;2023-06-10T17:11:20;0.60;;;0.60;;
20655;SDS011;10487;53.320;8.672;2023-06-10T17:14:22;0.73;;;0.63;;
20655;SDS011;10487;53.320;8.672;2023-06-10T17:17:27;0.50;;;0.50;;
20655;SDS011;10487;53.320;8.672;2023-06-10T17:20:29;0.70;;;0.70;;
20655;SDS011;10487;53.320;8.672;2023-06-10T17:23:32;0.80;;;0.63;;
20655;SDS011;10487;53.320;8.672;2023-06-10T17:26:34;0.93;;;0.50;;
20655;SDS011;10487;53.320;8.672;2023-06-10T17:29:35;0.40;;;0.40;;
20655;SDS011;10487;53.320;8.672;2023-06-10T17:32:37;0.40;;;0.40;;
20655;SDS011;10487;53.320;8.672;2023-06-10T17:35:41;0.40;;;0.40;;
20655;SDS011;10487;53.320;8.672;2023-06-10T17:38:43;0.50;;;0.50;;
20655;SDS011;10487;53.320;8.672;2023-06-10T17:41:44;0.70;;;0.70;;
20655;SDS011;10487;53.320;8.672;2023-06-10T17:44:46;1.05;;;0.60;;
20655;SDS011;10487;53.320;8.672;2023-06-10T17:47:48;1.75;;;0.60;;
20655;SDS011;10487;53.320;8.672;2023-06-10T17:50:50;0.57;;;0.57;;
20655;SDS011;10487;53.320;8.672;2023-06-10T17:53:51;0.68;;;0.50;;
20655;SDS011;10487;53.320;8.672;2023-06-10T17:56:53;1.83;;;0.60;;
20655;SDS011;10487;53.320;8.672;2023-06-10T17:59:55;1.10;;;0.60;;
20655;SDS011;10487;53.320;8.672;2023-06-10T18:02:57;0.70;;;0.60;;
20655;SDS011;10487;53.320;8.672;2023-06-10T18:05:59;0.60;;;0.60;;
20655;SDS011;10487;53.320;8.672;2023-06-10T18:09:01;0.40;;;0.40;;
20655;SDS011;10487;53.320;8.672;2023-06-10T18:12:02;0.40;;;0.40;;
20655;SDS011;10487;53.320;8.672;2023-06-10T18:15:04;0.82;;;0.60;;
20655;SDS011;10487;53.320;8.672;2023-06-10T18:18:07;0.82;;;0.40;;
20655;SDS011;10487;53.320;8.672;2023-06-10T18:21:10;0.40;;;0.38;;
20655;SDS011;10487;53.320;8.672;2023-06-10T18:24:12;0.50;;;0.30;;
20655;SDS011;10487;53.320;8.672;2023-06-10T18:27:13;0.47;;;0.40;;
20655;SDS011;10487;53.320;8.672;2023-06-10T18:30:17;0.55;;;0.50;;